createdAt,value
2018-11-21T00:02:37.425Z,10.88
2018-11-21T00:05:17.444Z,9.53
2018-11-21T00:07:56.749Z,9.65
2018-11-21T00:10:36.755Z,10.30
2018-11-21T00:13:16.602Z,9.18
2018-11-21T00:15:56.194Z,10.35
2018-11-21T00:18:35.895Z,8.80
2018-11-21T00:21:15.663Z,10.53
2018-11-21T00:23:55.325Z,10.82
2018-11-21T00:26:34.894Z,9.88
2018-11-21T00:29:14.337Z,10.60
2018-11-21T00:31:52.175Z,10.85
2018-11-21T00:34:32.481Z,10.45
2018-11-21T00:37:12.438Z,10.78
2018-11-21T00:39:53.322Z,10.00
2018-11-21T00:42:33.277Z,10.60
2018-11-21T00:45:13.060Z,10.38
2018-11-21T00:47:52.561Z,10.78
2018-11-21T00:50:32.226Z,10.38
2018-11-21T00:53:11.877Z,10.80
2018-11-21T00:55:51.904Z,10.55
2018-11-21T00:58:31.667Z,10.58
2018-11-21T01:01:11.263Z,10.70
2018-11-21T01:03:50.916Z,10.90
2018-11-21T01:06:30.643Z,11.53
2018-11-21T01:08:57.755Z,10.82
2018-11-21T01:11:44.491Z,11.83
2018-11-21T01:14:31.134Z,12.43
2018-11-21T01:17:10.965Z,12.40
2018-11-21T01:19:50.524Z,12.75
2018-11-21T01:22:30.470Z,11.85
2018-11-21T01:25:09.971Z,13.75
2018-11-21T01:27:49.865Z,13.98
2018-11-21T01:30:29.588Z,11.78
2018-11-21T01:33:09.720Z,13.13
2018-11-21T01:35:48.733Z,12.60
2018-11-21T01:38:28.113Z,13.15
2018-11-21T01:41:08.281Z,13.38
2018-11-21T01:43:48.539Z,14.13
2018-11-21T01:46:28.104Z,13.95
2018-11-21T01:49:07.807Z,13.10
2018-11-21T01:51:47.424Z,14.50
2018-11-21T01:54:27.096Z,13.40
2018-11-21T01:57:06.696Z,14.18
2018-11-21T01:59:46.204Z,14.00
2018-11-21T02:02:26.536Z,13.95
2018-11-21T02:05:06.179Z,14.90
2018-11-21T02:07:45.552Z,16.23
2018-11-21T02:10:25.187Z,14.47
2018-11-21T02:13:04.737Z,16.20
2018-11-21T02:15:45.096Z,14.95
2018-11-21T02:18:24.698Z,14.10
2018-11-21T02:21:04.394Z,16.00
2018-11-21T02:23:44.190Z,15.98
2018-11-21T02:26:23.825Z,14.50
2018-11-21T02:29:04.015Z,15.28
2018-11-21T02:31:43.659Z,14.73
2018-11-21T02:34:23.328Z,16.25
2018-11-21T02:36:50.732Z,17.05
2018-11-21T02:39:37.363Z,14.95
2018-11-21T02:42:24.029Z,15.08
2018-11-21T02:45:04.206Z,15.75
2018-11-21T02:47:43.988Z,15.15
2018-11-21T02:50:23.449Z,16.15
2018-11-21T02:53:03.209Z,15.20
2018-11-21T02:55:42.845Z,16.40
2018-11-21T02:58:22.399Z,15.45
2018-11-21T03:01:02.014Z,15.83
2018-11-21T03:03:41.716Z,15.38
2018-11-21T03:06:21.669Z,16.25
2018-11-21T03:09:01.323Z,16.95
2018-11-21T03:11:40.982Z,17.20
2018-11-21T03:14:20.773Z,17.75
2018-11-21T03:17:00.585Z,16.65
2018-11-21T03:19:40.387Z,18.48
2018-11-21T03:22:20.097Z,17.48
2018-11-21T03:24:59.849Z,16.30
2018-11-21T03:27:39.728Z,18.75
2018-11-21T03:30:19.865Z,18.12
2018-11-21T03:32:59.266Z,18.02
2018-11-21T03:35:38.912Z,18.85
2018-11-21T03:38:18.820Z,18.52
2018-11-21T03:40:58.469Z,16.75
2018-11-21T03:43:38.350Z,19.15
2018-11-21T03:46:18.071Z,18.05
2018-11-21T03:48:57.821Z,18.27
2018-11-21T03:51:38.036Z,19.20
2018-11-21T03:54:17.815Z,18.30
2018-11-21T03:56:57.436Z,17.70
2018-11-21T03:59:37.195Z,18.00
2018-11-21T04:02:16.853Z,18.40
2018-11-21T04:04:56.576Z,20.32
2018-11-21T04:07:36.552Z,17.82
2018-11-21T04:10:16.332Z,17.90
2018-11-21T04:12:55.996Z,19.80
2018-11-21T04:15:35.614Z,19.07
2018-11-21T04:18:15.125Z,17.85
2018-11-21T04:20:54.718Z,19.02
2018-11-21T04:23:34.275Z,19.55
2018-11-21T04:26:14.618Z,18.55
2018-11-21T04:28:54.825Z,19.50
2018-11-21T04:31:34.227Z,18.87
2018-11-21T04:34:13.943Z,17.70
2018-11-21T04:36:53.682Z,20.45
2018-11-21T04:39:33.231Z,18.12
2018-11-21T04:42:13.086Z,18.70
2018-11-21T04:44:53.447Z,19.20
2018-11-21T04:47:33.506Z,19.92
2018-11-21T04:50:13.385Z,18.10
2018-11-21T04:52:53.230Z,17.87
2018-11-21T04:55:32.625Z,18.30
2018-11-21T04:58:12.158Z,18.05
2018-11-21T05:00:51.882Z,19.52
2018-11-21T05:06:44.489Z,18.90
2018-11-21T05:09:24.238Z,18.23
2018-11-21T05:12:04.067Z,17.35
2018-11-21T05:14:43.793Z,17.92
2018-11-21T05:17:23.869Z,19.48
2018-11-21T05:20:03.416Z,16.85
2018-11-21T05:22:43.551Z,19.00
2018-11-21T05:25:23.203Z,17.80
2018-11-21T05:28:03.158Z,19.50
2018-11-21T05:30:43.164Z,18.67
2018-11-21T05:33:24.546Z,18.80
2018-11-21T05:36:04.867Z,17.48
2018-11-21T05:38:44.342Z,18.37
2018-11-21T05:41:23.871Z,19.15
2018-11-21T05:44:03.444Z,20.27
2018-11-21T05:46:43.305Z,20.70
2018-11-21T05:49:22.893Z,19.30
2018-11-21T05:51:50.035Z,18.67
2018-11-21T05:54:36.691Z,20.57
2018-11-21T05:57:16.376Z,19.90
2018-11-21T05:59:56.199Z,19.77
2018-11-21T06:02:35.782Z,19.65
2018-11-21T06:05:15.319Z,20.55
2018-11-21T06:07:55.208Z,20.05
2018-11-21T06:10:34.977Z,21.50
2018-11-21T06:13:02.078Z,22.13
2018-11-21T06:15:48.708Z,18.90
2018-11-21T06:18:28.477Z,20.97
2018-11-21T06:21:08.442Z,20.92
2018-11-21T06:23:49.013Z,20.20
2018-11-21T06:26:28.384Z,18.75
2018-11-21T06:29:08.062Z,21.30
2018-11-21T06:31:47.694Z,19.80
2018-11-21T06:34:32.747Z,21.17
2018-11-21T06:37:07.223Z,19.35
2018-11-21T06:39:46.787Z,20.68
2018-11-21T06:42:13.922Z,20.05
2018-11-21T06:45:00.544Z,20.80
2018-11-21T06:47:40.188Z,20.15
2018-11-21T06:50:19.911Z,19.98
2018-11-21T06:52:59.379Z,20.75
2018-11-21T06:55:39.115Z,20.70
2018-11-21T06:58:18.712Z,20.25
2018-11-21T07:00:58.664Z,20.17
2018-11-21T07:03:25.760Z,20.85
2018-11-21T07:06:13.010Z,20.65
2018-11-21T07:08:59.695Z,21.85
2018-11-21T07:11:27.100Z,19.45
2018-11-21T07:14:13.823Z,21.77
2018-11-21T07:16:53.399Z,21.07
2018-11-21T07:19:32.905Z,20.30
2018-11-21T07:22:12.318Z,21.30
2018-11-21T07:24:52.408Z,20.25
2018-11-21T07:27:32.064Z,20.50
2018-11-21T07:30:13.089Z,20.08
2018-11-21T07:32:53.196Z,20.50
2018-11-21T07:35:32.787Z,21.57
2018-11-21T07:37:59.939Z,19.07
2018-11-21T07:40:46.588Z,19.87
2018-11-21T07:43:33.241Z,20.40
2018-11-21T07:46:19.907Z,19.48
2018-11-21T07:48:59.751Z,20.43
2018-11-21T07:51:39.335Z,24.25
2018-11-21T07:54:18.821Z,20.88
2018-11-21T07:57:00.954Z,21.00
2018-11-21T07:59:40.971Z,20.52
2018-11-21T08:02:25.287Z,19.77
2018-11-21T08:05:24.947Z,18.87
2018-11-21T08:08:11.714Z,19.50
2018-11-21T08:11:17.960Z,20.52
2018-11-21T08:14:24.147Z,18.40
2018-11-21T08:17:30.367Z,20.68
2018-11-21T08:20:29.510Z,20.65
2018-11-21T08:23:29.132Z,19.73
2018-11-21T08:26:23.412Z,18.75
2018-11-21T08:28:50.573Z,20.00
2018-11-21T08:31:37.292Z,20.50
2018-11-21T08:34:23.965Z,19.65
2018-11-21T08:37:03.517Z,20.23
2018-11-21T08:39:43.549Z,19.40
2018-11-21T08:42:23.186Z,20.15
2018-11-21T08:45:03.060Z,21.15
2018-11-21T08:47:42.694Z,20.95
2018-11-21T08:50:22.358Z,20.45
2018-11-21T08:53:02.348Z,20.17
2018-11-21T08:55:29.417Z,21.50
2018-11-21T08:58:16.107Z,20.85
2018-11-21T09:01:02.784Z,19.42
2018-11-21T09:03:49.431Z,19.77
2018-11-21T09:06:29.176Z,21.50
2018-11-21T09:08:56.621Z,22.13
2018-11-21T09:11:43.284Z,23.62
2018-11-21T09:14:23.466Z,19.57
2018-11-21T09:17:03.154Z,21.75
2018-11-21T09:19:30.652Z,19.17
2018-11-21T09:22:17.243Z,19.95
2018-11-21T09:25:05.072Z,20.32
2018-11-21T09:27:44.730Z,20.80
2018-11-21T09:30:24.285Z,22.00
2018-11-21T09:33:04.161Z,20.77
2018-11-21T09:35:43.799Z,20.43
2018-11-21T09:38:24.094Z,19.75
2018-11-21T09:41:04.568Z,21.35
2018-11-21T09:43:43.905Z,19.95
2018-11-21T09:46:23.717Z,18.95
2018-11-21T09:49:03.114Z,17.73
2018-11-21T09:51:42.973Z,18.30
2018-11-21T09:54:23.070Z,19.35
2018-11-21T09:57:03.437Z,19.07
2018-11-21T09:59:43.305Z,18.35
2018-11-21T10:02:23.585Z,17.50
2018-11-21T10:05:03.175Z,18.37
2018-11-21T10:07:42.918Z,19.17
2018-11-21T10:10:23.123Z,18.42
2018-11-21T10:13:02.756Z,19.25
2018-11-21T10:15:42.498Z,17.87
2018-11-21T10:18:09.670Z,19.82
2018-11-21T10:20:56.331Z,19.82
2018-11-21T10:23:36.039Z,19.67
2018-11-21T10:26:15.944Z,17.90
2018-11-21T10:28:55.500Z,19.23
2018-11-21T10:31:35.385Z,19.02
2018-11-21T10:34:02.590Z,18.15
2018-11-21T10:36:49.281Z,19.27
2018-11-21T10:39:35.981Z,17.32
2018-11-21T10:42:15.472Z,18.95
2018-11-21T10:44:55.476Z,19.45
2018-11-21T10:47:35.368Z,17.45
2018-11-21T10:50:15.132Z,18.90
2018-11-21T10:52:54.755Z,18.42
2018-11-21T10:55:34.584Z,16.85
2018-11-21T10:58:14.344Z,18.20
2018-11-21T11:01:13.561Z,18.50
2018-11-21T11:04:16.316Z,18.42
2018-11-21T11:07:15.974Z,17.45
2018-11-21T11:10:14.979Z,18.00
2018-11-21T11:12:53.542Z,16.93
2018-11-21T11:15:59.806Z,17.73
2018-11-21T11:18:59.047Z,19.55
2018-11-21T11:21:55.908Z,17.95
2018-11-21T11:24:55.789Z,19.32
2018-11-21T11:27:55.350Z,20.00
2018-11-21T11:33:56.516Z,18.70
2018-11-21T11:36:55.620Z,19.48
2018-11-21T11:39:54.909Z,20.52
2018-11-21T11:42:54.562Z,19.75
2018-11-21T11:46:00.284Z,19.90
2018-11-21T11:48:56.813Z,20.60
2018-11-21T11:51:56.049Z,18.52
2018-11-21T11:54:42.740Z,20.00
2018-11-21T11:57:49.037Z,20.57
2018-11-21T12:00:35.712Z,19.80
2018-11-21T12:03:41.936Z,21.20
2018-11-21T12:10:00.410Z,20.20
2018-11-21T12:12:59.512Z,21.42
2018-11-21T12:16:04.943Z,21.62
2018-11-21T12:19:04.594Z,21.80
2018-11-21T12:25:07.585Z,22.32
2018-11-21T12:28:07.146Z,21.50
2018-11-21T12:31:06.897Z,21.77
2018-11-21T12:34:09.494Z,20.60
2018-11-21T12:37:09.281Z,22.25
2018-11-21T12:40:11.338Z,21.23
2018-11-21T12:43:13.622Z,20.90
2018-11-21T12:46:08.351Z,20.82
2018-11-21T12:49:01.308Z,20.90
2018-11-21T12:52:00.368Z,22.13
2018-11-21T12:54:59.474Z,21.57
2018-11-21T12:58:05.651Z,21.65
2018-11-21T13:00:52.375Z,29.90
2018-11-21T13:03:58.622Z,22.98
2018-11-21T13:06:58.264Z,20.75
2018-11-21T13:09:58.143Z,21.02
2018-11-21T13:12:43.653Z,22.50
2018-11-21T13:15:43.647Z,20.17
2018-11-21T13:18:41.593Z,22.22
2018-11-21T13:21:29.330Z,21.30
2018-11-21T13:24:28.430Z,20.72
2018-11-21T13:27:27.562Z,20.90
2018-11-21T13:30:26.511Z,37.93
2018-11-21T13:33:26.317Z,20.80
2018-11-21T13:36:25.414Z,23.00
2018-11-21T13:39:12.956Z,21.97
2018-11-21T13:42:19.244Z,21.20
2018-11-21T13:48:23.234Z,23.38
2018-11-21T13:51:14.770Z,20.50
2018-11-21T13:54:14.635Z,20.40
2018-11-21T13:56:41.752Z,23.45
2018-11-21T13:59:28.449Z,21.20
2018-11-21T14:02:15.136Z,22.40
2018-11-21T14:04:55.447Z,22.60
2018-11-21T14:07:35.689Z,22.62
2018-11-21T14:10:15.204Z,22.07
2018-11-21T14:12:54.847Z,21.25
2018-11-21T14:15:34.601Z,21.50
2018-11-21T14:18:14.311Z,22.02
2018-11-21T14:20:53.812Z,22.27
2018-11-21T14:23:33.994Z,22.10
2018-11-21T14:26:13.684Z,20.52
2018-11-21T14:28:53.541Z,21.55
2018-11-21T14:31:33.841Z,21.05
2018-11-21T14:34:14.797Z,24.50
2018-11-21T14:36:55.120Z,20.77
2018-11-21T14:39:34.745Z,43.75
2018-11-21T14:42:14.341Z,21.48
2018-11-21T14:44:53.931Z,22.27
2018-11-21T14:47:21.104Z,22.05
2018-11-21T14:50:09.990Z,23.62
2018-11-21T14:52:49.918Z,22.27
2018-11-21T14:55:29.805Z,21.33
2018-11-21T14:58:10.009Z,20.55
2018-11-21T15:00:50.589Z,20.15
2018-11-21T15:03:30.941Z,22.60
2018-11-21T15:06:10.756Z,18.77
2018-11-21T15:08:50.785Z,21.48
2018-11-21T15:11:30.420Z,21.35
2018-11-21T15:13:57.593Z,20.45
2018-11-21T15:16:44.255Z,20.82
2018-11-21T15:19:24.247Z,24.30
2018-11-21T15:22:04.180Z,22.10
2018-11-21T15:24:41.984Z,24.12
2018-11-21T15:27:09.176Z,25.65
2018-11-21T15:29:36.330Z,24.20
2018-11-21T15:32:03.828Z,29.50
2018-11-21T15:34:50.506Z,28.70
2018-11-21T15:37:28.651Z,28.07
2018-11-21T15:40:17.013Z,27.52
2018-11-21T15:42:44.125Z,23.15
2018-11-21T15:45:13.356Z,22.65
2018-11-21T15:48:00.889Z,21.23
2018-11-21T15:50:47.571Z,20.30
2018-11-21T15:53:27.326Z,21.48
2018-11-21T15:56:07.294Z,21.07
2018-11-21T15:58:47.573Z,19.98
2018-11-21T16:01:29.547Z,22.77
2018-11-21T16:04:08.953Z,21.15
2018-11-21T16:06:48.810Z,20.80
2018-11-21T16:09:28.407Z,20.05
2018-11-21T16:12:08.196Z,21.30
2018-11-21T16:14:47.956Z,20.15
2018-11-21T16:17:27.780Z,21.27
2018-11-21T16:19:54.912Z,18.92
2018-11-21T16:22:41.863Z,19.92
2018-11-21T16:25:22.219Z,20.20
2018-11-21T16:34:11.869Z,20.92
2018-11-21T16:36:51.684Z,22.45
2018-11-21T16:39:31.366Z,19.02
2018-11-21T16:42:11.291Z,18.75
2018-11-21T16:44:50.684Z,20.60
2018-11-21T16:47:17.912Z,20.37
2018-11-21T16:50:06.518Z,25.27
2018-11-21T16:52:46.974Z,20.55
2018-11-21T16:55:26.916Z,19.48
2018-11-21T16:58:09.945Z,20.68
2018-11-21T17:00:49.693Z,19.50
2018-11-21T17:03:29.360Z,20.30
2018-11-21T17:06:09.132Z,19.05
2018-11-21T17:08:49.150Z,19.23
2018-11-21T17:11:28.552Z,18.48
2018-11-21T17:13:56.108Z,19.60
2018-11-21T17:16:42.805Z,20.08
2018-11-21T17:19:29.835Z,20.50
2018-11-21T17:22:09.284Z,19.32
2018-11-21T17:24:49.018Z,19.48
